sensor_id;sensor_type;location;lat;lon;timestamp;temperature;humidity
16321;DHT22;8269;50.990;4.494;2022-07-23T00:01:16;16.70;99.90
16321;DHT22;8269;50.990;4.494;2022-07-23T00:03:42;16.70;99.90
16321;DHT22;8269;50.990;4.494;2022-07-23T00:06:08;16.70;99.90
16321;DHT22;8269;50.990;4.494;2022-07-23T00:08:34;16.60;99.90
16321;DHT22;8269;50.990;4.494;2022-07-23T00:10:59;16.50;99.90
16321;DHT22;8269;50.990;4.494;2022-07-23T00:13:26;16.50;99.90
16321;DHT22;8269;50.990;4.494;2022-07-23T00:15:51;16.40;99.90
16321;DHT22;8269;50.990;4.494;2022-07-23T00:18:17;16.40;99.90
16321;DHT22;8269;50.990;4.494;2022-07-23T00:20:43;16.40;99.90
16321;DHT22;8269;50.990;4.494;2022-07-23T00:23:08;16.30;99.90
16321;DHT22;8269;50.990;4.494;2022-07-23T00:25:34;16.40;99.90
16321;DHT22;8269;50.990;4.494;2022-07-23T00:28:01;16.40;99.90
16321;DHT22;8269;50.990;4.494;2022-07-23T00:30:27;16.30;99.90
16321;DHT22;8269;50.990;4.494;2022-07-23T00:32:57;16.30;99.90
16321;DHT22;8269;50.990;4.494;2022-07-23T00:35:24;16.30;99.90
16321;DHT22;8269;50.990;4.494;2022-07-23T00:37:50;16.20;99.90
16321;DHT22;8269;50.990;4.494;2022-07-23T00:40:16;16.10;99.90
16321;DHT22;8269;50.990;4.494;2022-07-23T00:42:42;16.10;99.90
16321;DHT22;8269;50.990;4.494;2022-07-23T00:45:08;16.10;99.90
16321;DHT22;8269;50.990;4.494;2022-07-23T00:47:34;16.20;99.90
16321;DHT22;8269;50.990;4.494;2022-07-23T00:50:00;16.20;99.90
16321;DHT22;8269;50.990;4.494;2022-07-23T00:52:26;16.20;99.90
16321;DHT22;8269;50.990;4.494;2022-07-23T00:54:52;16.10;99.90
16321;DHT22;8269;50.990;4.494;2022-07-23T00:57:18;16.10;99.90
16321;DHT22;8269;50.990;4.494;2022-07-23T00:59:44;16.10;99.90
16321;DHT22;8269;50.990;4.494;2022-07-23T01:02:09;16.10;99.90
16321;DHT22;8269;50.990;4.494;2022-07-23T01:04:35;16.10;99.90
16321;DHT22;8269;50.990;4.494;2022-07-23T01:07:01;16.00;99.90
16321;DHT22;8269;50.990;4.494;2022-07-23T01:09:27;15.90;99.90
16321;DHT22;8269;50.990;4.494;2022-07-23T01:11:55;15.90;99.90
16321;DHT22;8269;50.990;4.494;2022-07-23T01:14:21;15.80;99.90
16321;DHT22;8269;50.990;4.494;2022-07-23T01:16:48;15.70;99.90
16321;DHT22;8269;50.990;4.494;2022-07-23T01:19:15;15.70;99.90
16321;DHT22;8269;50.990;4.494;2022-07-23T01:21:49;15.70;99.90
16321;DHT22;8269;50.990;4.494;2022-07-23T01:24:16;15.60;99.90
16321;DHT22;8269;50.990;4.494;2022-07-23T01:26:44;15.60;99.90
16321;DHT22;8269;50.990;4.494;2022-07-23T01:29:10;15.70;99.90
16321;DHT22;8269;50.990;4.494;2022-07-23T01:31:36;15.70;99.90
16321;DHT22;8269;50.990;4.494;2022-07-23T01:34:02;15.60;99.90
16321;DHT22;8269;50.990;4.494;2022-07-23T01:36:28;15.60;99.90
16321;DHT22;8269;50.990;4.494;2022-07-23T01:38:54;15.50;99.90
16321;DHT22;8269;50.990;4.494;2022-07-23T01:41:19;15.50;99.90
16321;DHT22;8269;50.990;4.494;2022-07-23T01:43:45;15.50;99.90
16321;DHT22;8269;50.990;4.494;2022-07-23T01:46:11;15.50;99.90
16321;DHT22;8269;50.990;4.494;2022-07-23T01:48:37;15.40;99.90
16321;DHT22;8269;50.990;4.494;2022-07-23T01:51:03;15.50;99.90
16321;DHT22;8269;50.990;4.494;2022-07-23T01:53:29;15.50;99.90
16321;DHT22;8269;50.990;4.494;2022-07-23T01:55:57;15.50;99.90
16321;DHT22;8269;50.990;4.494;2022-07-23T01:58:22;15.50;99.90
16321;DHT22;8269;50.990;4.494;2022-07-23T02:00:48;15.50;99.90
16321;DHT22;8269;50.990;4.494;2022-07-23T02:03:14;15.50;99.90
16321;DHT22;8269;50.990;4.494;2022-07-23T02:05:39;15.40;99.90
16321;DHT22;8269;50.990;4.494;2022-07-23T02:08:05;15.40;99.90
16321;DHT22;8269;50.990;4.494;2022-07-23T02:10:31;15.40;99.90
16321;DHT22;8269;50.990;4.494;2022-07-23T02:12:57;15.30;99.90
16321;DHT22;8269;50.990;4.494;2022-07-23T02:15:23;15.30;99.90
16321;DHT22;8269;50.990;4.494;2022-07-23T02:17:49;15.30;99.90
16321;DHT22;8269;50.990;4.494;2022-07-23T02:20:15;15.30;99.90
16321;DHT22;8269;50.990;4.494;2022-07-23T02:22:40;15.40;99.90
16321;DHT22;8269;50.990;4.494;2022-07-23T02:25:07;15.40;99.90
16321;DHT22;8269;50.990;4.494;2022-07-23T02:27:33;15.40;99.90
16321;DHT22;8269;50.990;4.494;2022-07-23T02:29:59;15.40;99.90
16321;DHT22;8269;50.990;4.494;2022-07-23T02:32:25;15.40;99.90
16321;DHT22;8269;50.990;4.494;2022-07-23T02:34:51;15.40;99.90
16321;DHT22;8269;50.990;4.494;2022-07-23T02:37:16;15.40;99.90
16321;DHT22;8269;50.990;4.494;2022-07-23T02:39:43;15.30;99.90
16321;DHT22;8269;50.990;4.494;2022-07-23T02:42:08;15.30;99.90
16321;DHT22;8269;50.990;4.494;2022-07-23T02:44:34;15.30;99.90
16321;DHT22;8269;50.990;4.494;2022-07-23T02:47:00;15.30;99.90
16321;DHT22;8269;50.990;4.494;2022-07-23T02:49:27;15.30;99.90
16321;DHT22;8269;50.990;4.494;2022-07-23T02:51:53;15.20;99.90
16321;DHT22;8269;50.990;4.494;2022-07-23T02:54:18;15.20;99.90
16321;DHT22;8269;50.990;4.494;2022-07-23T02:56:44;15.20;99.90
16321;DHT22;8269;50.990;4.494;2022-07-23T02:59:10;15.20;99.90
16321;DHT22;8269;50.990;4.494;2022-07-23T03:01:36;15.20;99.90
16321;DHT22;8269;50.990;4.494;2022-07-23T03:04:02;15.20;99.90
16321;DHT22;8269;50.990;4.494;2022-07-23T03:06:27;15.20;99.90
16321;DHT22;8269;50.990;4.494;2022-07-23T03:08:53;15.10;99.90
16321;DHT22;8269;50.990;4.494;2022-07-23T03:11:19;15.00;99.90
16321;DHT22;8269;50.990;4.494;2022-07-23T03:13:44;15.00;99.90
16321;DHT22;8269;50.990;4.494;2022-07-23T03:16:10;15.00;99.90
16321;DHT22;8269;50.990;4.494;2022-07-23T03:18:36;15.00;99.90
16321;DHT22;8269;50.990;4.494;2022-07-23T03:21:02;15.00;99.90
16321;DHT22;8269;50.990;4.494;2022-07-23T03:23:27;15.00;99.90
16321;DHT22;8269;50.990;4.494;2022-07-23T03:25:53;15.00;99.90
16321;DHT22;8269;50.990;4.494;2022-07-23T03:28:19;14.90;99.90
16321;DHT22;8269;50.990;4.494;2022-07-23T03:30:46;15.00;99.90
16321;DHT22;8269;50.990;4.494;2022-07-23T03:33:13;15.00;99.90
16321;DHT22;8269;50.990;4.494;2022-07-23T03:35:39;15.00;99.90
16321;DHT22;8269;50.990;4.494;2022-07-23T03:38:05;15.00;99.90
16321;DHT22;8269;50.990;4.494;2022-07-23T03:40:31;14.90;99.90
16321;DHT22;8269;50.990;4.494;2022-07-23T03:42:56;14.80;99.90
16321;DHT22;8269;50.990;4.494;2022-07-23T03:45:22;14.80;99.90
16321;DHT22;8269;50.990;4.494;2022-07-23T03:47:47;14.70;99.90
16321;DHT22;8269;50.990;4.494;2022-07-23T03:50:13;14.60;99.90
16321;DHT22;8269;50.990;4.494;2022-07-23T03:52:39;14.50;99.90
16321;DHT22;8269;50.990;4.494;2022-07-23T03:55:05;14.40;99.90
16321;DHT22;8269;50.990;4.494;2022-07-23T03:57:31;14.30;99.90
16321;DHT22;8269;50.990;4.494;2022-07-23T03:59:57;14.30;99.90
16321;DHT22;8269;50.990;4.494;2022-07-23T04:02:23;14.30;99.90
16321;DHT22;8269;50.990;4.494;2022-07-23T04:04:48;14.30;99.90
16321;DHT22;8269;50.990;4.494;2022-07-23T04:07:14;14.40;99.90
16321;DHT22;8269;50.990;4.494;2022-07-23T04:09:40;14.40;99.90
16321;DHT22;8269;50.990;4.494;2022-07-23T04:12:06;14.40;99.90
16321;DHT22;8269;50.990;4.494;2022-07-23T04:14:33;14.40;99.90
16321;DHT22;8269;50.990;4.494;2022-07-23T04:16:59;14.40;99.90
16321;DHT22;8269;50.990;4.494;2022-07-23T04:19:25;14.40;99.90
16321;DHT22;8269;50.990;4.494;2022-07-23T04:21:51;14.50;99.90
16321;DHT22;8269;50.990;4.494;2022-07-23T04:24:17;14.60;99.90
16321;DHT22;8269;50.990;4.494;2022-07-23T04:26:44;14.80;99.90
16321;DHT22;8269;50.990;4.494;2022-07-23T04:29:10;15.10;99.90
16321;DHT22;8269;50.990;4.494;2022-07-23T04:31:36;15.20;99.90
16321;DHT22;8269;50.990;4.494;2022-07-23T04:34:01;15.50;99.90
16321;DHT22;8269;50.990;4.494;2022-07-23T04:36:27;15.80;99.90
16321;DHT22;8269;50.990;4.494;2022-07-23T04:38:53;16.10;99.90
16321;DHT22;8269;50.990;4.494;2022-07-23T04:41:19;16.10;99.90
16321;DHT22;8269;50.990;4.494;2022-07-23T04:43:45;16.30;99.90
16321;DHT22;8269;50.990;4.494;2022-07-23T04:46:11;16.50;99.90
16321;DHT22;8269;50.990;4.494;2022-07-23T04:48:36;16.60;99.90
16321;DHT22;8269;50.990;4.494;2022-07-23T04:51:02;16.80;99.90
16321;DHT22;8269;50.990;4.494;2022-07-23T04:53:28;17.00;99.90
16321;DHT22;8269;50.990;4.494;2022-07-23T04:55:54;17.00;99.90
16321;DHT22;8269;50.990;4.494;2022-07-23T04:58:20;17.00;99.90
16321;DHT22;8269;50.990;4.494;2022-07-23T05:00:46;17.30;99.90
16321;DHT22;8269;50.990;4.494;2022-07-23T05:03:11;17.50;99.10
16321;DHT22;8269;50.990;4.494;2022-07-23T05:05:37;17.60;98.00
16321;DHT22;8269;50.990;4.494;2022-07-23T05:08:03;17.80;98.20
16321;DHT22;8269;50.990;4.494;2022-07-23T05:10:29;17.80;97.80
16321;DHT22;8269;50.990;4.494;2022-07-23T05:12:54;18.20;97.30
16321;DHT22;8269;50.990;4.494;2022-07-23T05:15:20;18.50;95.90
16321;DHT22;8269;50.990;4.494;2022-07-23T05:17:46;19.00;95.30
16321;DHT22;8269;50.990;4.494;2022-07-23T05:20:12;19.40;94.10
16321;DHT22;8269;50.990;4.494;2022-07-23T05:22:38;19.80;93.00
16321;DHT22;8269;50.990;4.494;2022-07-23T05:25:05;20.20;91.80
16321;DHT22;8269;50.990;4.494;2022-07-23T05:27:30;20.50;90.40
16321;DHT22;8269;50.990;4.494;2022-07-23T05:29:57;20.80;88.90
16321;DHT22;8269;50.990;4.494;2022-07-23T05:32:23;20.90;86.20
16321;DHT22;8269;50.990;4.494;2022-07-23T05:34:49;20.80;85.90
16321;DHT22;8269;50.990;4.494;2022-07-23T05:37:15;20.90;87.10
16321;DHT22;8269;50.990;4.494;2022-07-23T05:39:41;21.30;84.60
16321;DHT22;8269;50.990;4.494;2022-07-23T05:42:06;21.40;83.50
16321;DHT22;8269;50.990;4.494;2022-07-23T05:44:33;21.40;82.90
16321;DHT22;8269;50.990;4.494;2022-07-23T05:46:58;21.50;81.60
16321;DHT22;8269;50.990;4.494;2022-07-23T05:49:24;21.20;83.40
16321;DHT22;8269;50.990;4.494;2022-07-23T05:51:50;21.50;82.20
16321;DHT22;8269;50.990;4.494;2022-07-23T05:54:15;21.70;80.10
16321;DHT22;8269;50.990;4.494;2022-07-23T05:56:41;21.10;82.20
16321;DHT22;8269;50.990;4.494;2022-07-23T05:59:07;20.60;84.00
16321;DHT22;8269;50.990;4.494;2022-07-23T06:01:32;20.40;85.80
16321;DHT22;8269;50.990;4.494;2022-07-23T06:03:58;20.30;86.40
16321;DHT22;8269;50.990;4.494;2022-07-23T06:06:24;20.10;87.70
16321;DHT22;8269;50.990;4.494;2022-07-23T06:08:49;19.90;87.80
16321;DHT22;8269;50.990;4.494;2022-07-23T06:11:15;19.70;90.00
16321;DHT22;8269;50.990;4.494;2022-07-23T06:13:40;19.50;90.10
16321;DHT22;8269;50.990;4.494;2022-07-23T06:16:06;19.60;90.40
16321;DHT22;8269;50.990;4.494;2022-07-23T06:18:32;19.70;90.30
16321;DHT22;8269;50.990;4.494;2022-07-23T06:20:57;19.60;90.30
16321;DHT22;8269;50.990;4.494;2022-07-23T06:23:23;19.70;90.20
16321;DHT22;8269;50.990;4.494;2022-07-23T06:25:49;19.30;90.90
16321;DHT22;8269;50.990;4.494;2022-07-23T06:28:14;19.30;91.80
16321;DHT22;8269;50.990;4.494;2022-07-23T06:30:40;19.30;92.50
16321;DHT22;8269;50.990;4.494;2022-07-23T06:33:06;20.10;91.10
16321;DHT22;8269;50.990;4.494;2022-07-23T06:35:32;20.70;89.80
16321;DHT22;8269;50.990;4.494;2022-07-23T06:37:59;21.70;84.20
16321;DHT22;8269;50.990;4.494;2022-07-23T06:40:26;22.70;80.70
16321;DHT22;8269;50.990;4.494;2022-07-23T06:42:51;23.50;76.50
16321;DHT22;8269;50.990;4.494;2022-07-23T06:45:18;23.70;73.00
16321;DHT22;8269;50.990;4.494;2022-07-23T06:47:43;23.90;72.00
16321;DHT22;8269;50.990;4.494;2022-07-23T06:50:10;24.00;70.70
16321;DHT22;8269;50.990;4.494;2022-07-23T06:52:36;23.90;70.40
16321;DHT22;8269;50.990;4.494;2022-07-23T06:55:01;24.10;70.70
16321;DHT22;8269;50.990;4.494;2022-07-23T06:57:27;24.60;67.80
16321;DHT22;8269;50.990;4.494;2022-07-23T06:59:53;24.50;66.90
16321;DHT22;8269;50.990;4.494;2022-07-23T07:02:19;24.40;67.70
16321;DHT22;8269;50.990;4.494;2022-07-23T07:04:44;24.70;66.10
16321;DHT22;8269;50.990;4.494;2022-07-23T07:07:10;24.60;66.60
16321;DHT22;8269;50.990;4.494;2022-07-23T07:09:37;24.70;65.10
16321;DHT22;8269;50.990;4.494;2022-07-23T07:12:03;25.40;64.70
16321;DHT22;8269;50.990;4.494;2022-07-23T07:14:29;25.70;62.80
16321;DHT22;8269;50.990;4.494;2022-07-23T07:16:55;25.70;62.20
16321;DHT22;8269;50.990;4.494;2022-07-23T07:19:21;25.40;64.30
16321;DHT22;8269;50.990;4.494;2022-07-23T07:21:46;25.70;62.50
16321;DHT22;8269;50.990;4.494;2022-07-23T07:24:12;26.10;61.90
16321;DHT22;8269;50.990;4.494;2022-07-23T07:26:37;26.40;60.60
16321;DHT22;8269;50.990;4.494;2022-07-23T07:29:04;25.50;61.60
16321;DHT22;8269;50.990;4.494;2022-07-23T07:31:30;25.70;61.70
16321;DHT22;8269;50.990;4.494;2022-07-23T07:33:56;25.40;62.90
16321;DHT22;8269;50.990;4.494;2022-07-23T07:36:22;25.40;63.10
16321;DHT22;8269;50.990;4.494;2022-07-23T07:38:48;25.50;63.20
16321;DHT22;8269;50.990;4.494;2022-07-23T07:41:14;26.00;61.70
16321;DHT22;8269;50.990;4.494;2022-07-23T07:43:39;25.60;61.80
16321;DHT22;8269;50.990;4.494;2022-07-23T07:46:05;25.60;62.50
16321;DHT22;8269;50.990;4.494;2022-07-23T07:48:37;25.90;62.70
16321;DHT22;8269;50.990;4.494;2022-07-23T07:51:04;25.90;60.70
16321;DHT22;8269;50.990;4.494;2022-07-23T07:53:30;26.20;60.50
16321;DHT22;8269;50.990;4.494;2022-07-23T07:55:56;26.30;59.40
16321;DHT22;8269;50.990;4.494;2022-07-23T07:58:21;26.00;61.20
16321;DHT22;8269;50.990;4.494;2022-07-23T08:00:47;26.30;59.00
16321;DHT22;8269;50.990;4.494;2022-07-23T08:03:13;26.30;59.00
16321;DHT22;8269;50.990;4.494;2022-07-23T08:05:40;26.70;58.30
16321;DHT22;8269;50.990;4.494;2022-07-23T08:08:06;26.90;57.90
16321;DHT22;8269;50.990;4.494;2022-07-23T08:10:32;27.30;56.40
16321;DHT22;8269;50.990;4.494;2022-07-23T08:12:59;27.20;56.30
16321;DHT22;8269;50.990;4.494;2022-07-23T08:15:28;27.40;55.50
16321;DHT22;8269;50.990;4.494;2022-07-23T08:17:54;27.60;55.00
16321;DHT22;8269;50.990;4.494;2022-07-23T08:20:22;27.40;54.10
16321;DHT22;8269;50.990;4.494;2022-07-23T08:25:21;28.00;54.30
16321;DHT22;8269;50.990;4.494;2022-07-23T08:27:47;27.70;54.70
16321;DHT22;8269;50.990;4.494;2022-07-23T08:30:13;27.80;53.70
16321;DHT22;8269;50.990;4.494;2022-07-23T08:32:53;28.10;52.60
16321;DHT22;8269;50.990;4.494;2022-07-23T08:35:27;28.20;51.80
16321;DHT22;8269;50.990;4.494;2022-07-23T08:37:53;28.00;51.90
16321;DHT22;8269;50.990;4.494;2022-07-23T08:40:19;27.90;52.30
16321;DHT22;8269;50.990;4.494;2022-07-23T08:42:47;28.20;51.60
16321;DHT22;8269;50.990;4.494;2022-07-23T08:45:16;27.70;51.40
16321;DHT22;8269;50.990;4.494;2022-07-23T08:47:43;27.80;51.60
16321;DHT22;8269;50.990;4.494;2022-07-23T08:50:10;28.00;51.10
16321;DHT22;8269;50.990;4.494;2022-07-23T08:52:37;28.00;51.40
16321;DHT22;8269;50.990;4.494;2022-07-23T08:55:03;28.20;51.30
16321;DHT22;8269;50.990;4.494;2022-07-23T08:57:29;27.50;52.40
16321;DHT22;8269;50.990;4.494;2022-07-23T08:59:55;27.20;52.30
16321;DHT22;8269;50.990;4.494;2022-07-23T09:02:21;27.10;53.80
16321;DHT22;8269;50.990;4.494;2022-07-23T09:04:47;27.00;53.60
16321;DHT22;8269;50.990;4.494;2022-07-23T09:07:12;27.10;55.30
16321;DHT22;8269;50.990;4.494;2022-07-23T09:09:38;27.30;54.00
16321;DHT22;8269;50.990;4.494;2022-07-23T09:12:06;27.80;52.20
16321;DHT22;8269;50.990;4.494;2022-07-23T09:14:37;28.10;51.60
16321;DHT22;8269;50.990;4.494;2022-07-23T09:17:14;28.20;50.50
16321;DHT22;8269;50.990;4.494;2022-07-23T09:19:41;28.50;48.60
16321;DHT22;8269;50.990;4.494;2022-07-23T09:22:36;27.90;48.60
16321;DHT22;8269;50.990;4.494;2022-07-23T09:27:56;28.00;49.30
16321;DHT22;8269;50.990;4.494;2022-07-23T09:30:24;27.70;49.60
16321;DHT22;8269;50.990;4.494;2022-07-23T09:33:11;27.70;50.60
16321;DHT22;8269;50.990;4.494;2022-07-23T09:38:09;27.80;48.80
16321;DHT22;8269;50.990;4.494;2022-07-23T09:40:35;27.90;48.50
16321;DHT22;8269;50.990;4.494;2022-07-23T09:43:00;27.70;48.60
16321;DHT22;8269;50.990;4.494;2022-07-23T09:45:26;27.50;48.60
16321;DHT22;8269;50.990;4.494;2022-07-23T09:48:10;27.20;49.00
16321;DHT22;8269;50.990;4.494;2022-07-23T09:50:38;27.20;50.10
16321;DHT22;8269;50.990;4.494;2022-07-23T09:53:03;27.10;50.00
16321;DHT22;8269;50.990;4.494;2022-07-23T09:55:33;26.80;50.00
16321;DHT22;8269;50.990;4.494;2022-07-23T09:58:09;26.50;51.10
16321;DHT22;8269;50.990;4.494;2022-07-23T10:00:39;26.30;51.50
16321;DHT22;8269;50.990;4.494;2022-07-23T10:03:06;26.20;52.50
16321;DHT22;8269;50.990;4.494;2022-07-23T10:05:33;26.00;53.20
16321;DHT22;8269;50.990;4.494;2022-07-23T10:08:01;25.80;50.90
16321;DHT22;8269;50.990;4.494;2022-07-23T10:10:27;25.80;51.10
16321;DHT22;8269;50.990;4.494;2022-07-23T10:12:55;25.70;50.80
16321;DHT22;8269;50.990;4.494;2022-07-23T10:15:40;25.80;50.70
16321;DHT22;8269;50.990;4.494;2022-07-23T10:18:07;25.90;50.20
16321;DHT22;8269;50.990;4.494;2022-07-23T10:20:35;26.00;50.90
16321;DHT22;8269;50.990;4.494;2022-07-23T10:23:24;25.70;51.60
16321;DHT22;8269;50.990;4.494;2022-07-23T10:31:10;25.60;50.40
16321;DHT22;8269;50.990;4.494;2022-07-23T10:34:07;25.80;49.40
16321;DHT22;8269;50.990;4.494;2022-07-23T10:39:13;26.10;50.20
16321;DHT22;8269;50.990;4.494;2022-07-23T10:41:41;25.80;49.60
16321;DHT22;8269;50.990;4.494;2022-07-23T10:44:15;25.70;50.50
16321;DHT22;8269;50.990;4.494;2022-07-23T10:47:02;25.80;49.80
16321;DHT22;8269;50.990;4.494;2022-07-23T10:58:02;26.10;48.80
16321;DHT22;8269;50.990;4.494;2022-07-23T11:00:30;26.00;49.10
16321;DHT22;8269;50.990;4.494;2022-07-23T11:02:59;26.00;49.70
16321;DHT22;8269;50.990;4.494;2022-07-23T11:05:38;26.20;49.70
16321;DHT22;8269;50.990;4.494;2022-07-23T11:10:37;26.40;47.70
16321;DHT22;8269;50.990;4.494;2022-07-23T11:16:21;26.30;47.40
16321;DHT22;8269;50.990;4.494;2022-07-23T11:34:45;26.50;48.60
16321;DHT22;8269;50.990;4.494;2022-07-23T11:37:38;26.40;48.50
16321;DHT22;8269;50.990;4.494;2022-07-23T11:40:08;26.50;47.30
16321;DHT22;8269;50.990;4.494;2022-07-23T11:42:36;26.20;47.70
16321;DHT22;8269;50.990;4.494;2022-07-23T11:45:04;26.20;48.00
16321;DHT22;8269;50.990;4.494;2022-07-23T11:47:29;26.20;48.00
16321;DHT22;8269;50.990;4.494;2022-07-23T11:49:57;26.20;47.50
16321;DHT22;8269;50.990;4.494;2022-07-23T11:52:24;26.10;47.10
16321;DHT22;8269;50.990;4.494;2022-07-23T11:54:59;26.10;48.40
16321;DHT22;8269;50.990;4.494;2022-07-23T11:57:28;26.20;47.90
16321;DHT22;8269;50.990;4.494;2022-07-23T12:00:18;26.10;48.50
16321;DHT22;8269;50.990;4.494;2022-07-23T12:02:54;26.10;47.80
16321;DHT22;8269;50.990;4.494;2022-07-23T12:05:23;26.20;48.00
16321;DHT22;8269;50.990;4.494;2022-07-23T12:07:50;26.20;47.80
16321;DHT22;8269;50.990;4.494;2022-07-23T12:10:20;26.10;47.90
16321;DHT22;8269;50.990;4.494;2022-07-23T12:12:50;26.10;49.10
16321;DHT22;8269;50.990;4.494;2022-07-23T12:15:20;26.10;49.10
16321;DHT22;8269;50.990;4.494;2022-07-23T12:17:48;26.10;49.40
16321;DHT22;8269;50.990;4.494;2022-07-23T12:20:24;26.10;48.80
16321;DHT22;8269;50.990;4.494;2022-07-23T12:22:52;26.20;48.90
16321;DHT22;8269;50.990;4.494;2022-07-23T12:25:20;26.20;48.40
16321;DHT22;8269;50.990;4.494;2022-07-23T12:30:34;26.30;48.70
16321;DHT22;8269;50.990;4.494;2022-07-23T12:33:02;26.20;49.10
16321;DHT22;8269;50.990;4.494;2022-07-23T12:35:36;26.20;48.60
16321;DHT22;8269;50.990;4.494;2022-07-23T12:38:08;26.20;48.60
16321;DHT22;8269;50.990;4.494;2022-07-23T12:43:08;26.20;48.90
16321;DHT22;8269;50.990;4.494;2022-07-23T12:48:26;26.00;49.20
16321;DHT22;8269;50.990;4.494;2022-07-23T12:50:59;26.10;49.40
16321;DHT22;8269;50.990;4.494;2022-07-23T12:53:28;26.10;49.50
16321;DHT22;8269;50.990;4.494;2022-07-23T13:01:05;26.30;48.40
16321;DHT22;8269;50.990;4.494;2022-07-23T13:03:34;26.50;48.90
16321;DHT22;8269;50.990;4.494;2022-07-23T13:06:02;26.70;48.90
16321;DHT22;8269;50.990;4.494;2022-07-23T13:08:30;27.00;47.20
16321;DHT22;8269;50.990;4.494;2022-07-23T13:10:57;27.00;47.10
16321;DHT22;8269;50.990;4.494;2022-07-23T13:13:26;27.10;47.40
16321;DHT22;8269;50.990;4.494;2022-07-23T13:15:52;27.20;47.70
16321;DHT22;8269;50.990;4.494;2022-07-23T13:18:18;27.30;47.30
16321;DHT22;8269;50.990;4.494;2022-07-23T13:20:47;27.20;47.20
16321;DHT22;8269;50.990;4.494;2022-07-23T13:23:13;27.20;47.80
16321;DHT22;8269;50.990;4.494;2022-07-23T13:25:40;27.30;47.60
16321;DHT22;8269;50.990;4.494;2022-07-23T13:28:06;27.30;47.80
16321;DHT22;8269;50.990;4.494;2022-07-23T13:30:32;27.30;47.10
16321;DHT22;8269;50.990;4.494;2022-07-23T13:32:58;27.10;47.80
16321;DHT22;8269;50.990;4.494;2022-07-23T13:35:24;27.10;48.30
16321;DHT22;8269;50.990;4.494;2022-07-23T13:37:50;27.10;48.30
16321;DHT22;8269;50.990;4.494;2022-07-23T13:40:16;27.30;48.70
16321;DHT22;8269;50.990;4.494;2022-07-23T13:42:42;27.40;48.10
16321;DHT22;8269;50.990;4.494;2022-07-23T13:45:07;27.40;47.60
16321;DHT22;8269;50.990;4.494;2022-07-23T13:47:33;27.10;47.70
16321;DHT22;8269;50.990;4.494;2022-07-23T13:49:59;27.00;48.30
16321;DHT22;8269;50.990;4.494;2022-07-23T13:52:25;27.00;47.90
16321;DHT22;8269;50.990;4.494;2022-07-23T13:54:51;27.00;47.60
16321;DHT22;8269;50.990;4.494;2022-07-23T13:57:17;27.00;47.80
16321;DHT22;8269;50.990;4.494;2022-07-23T13:59:43;27.10;47.40
16321;DHT22;8269;50.990;4.494;2022-07-23T14:02:08;27.10;47.50
16321;DHT22;8269;50.990;4.494;2022-07-23T14:04:36;27.20;47.70
16321;DHT22;8269;50.990;4.494;2022-07-23T14:07:01;27.10;47.70
16321;DHT22;8269;50.990;4.494;2022-07-23T14:09:27;27.10;47.90
16321;DHT22;8269;50.990;4.494;2022-07-23T14:11:53;27.10;48.80
16321;DHT22;8269;50.990;4.494;2022-07-23T14:14:19;27.10;49.00
16321;DHT22;8269;50.990;4.494;2022-07-23T14:16:45;27.20;49.90
16321;DHT22;8269;50.990;4.494;2022-07-23T14:19:11;27.30;48.60
16321;DHT22;8269;50.990;4.494;2022-07-23T14:21:37;27.30;48.10
16321;DHT22;8269;50.990;4.494;2022-07-23T14:24:03;27.30;49.20
16321;DHT22;8269;50.990;4.494;2022-07-23T14:26:28;27.20;49.70
16321;DHT22;8269;50.990;4.494;2022-07-23T14:28:55;27.10;49.30
16321;DHT22;8269;50.990;4.494;2022-07-23T14:31:21;27.20;49.70
16321;DHT22;8269;50.990;4.494;2022-07-23T14:33:47;27.30;49.90
16321;DHT22;8269;50.990;4.494;2022-07-23T14:36:12;27.30;50.20
16321;DHT22;8269;50.990;4.494;2022-07-23T14:38:39;27.60;50.00
16321;DHT22;8269;50.990;4.494;2022-07-23T14:41:05;27.70;49.10
16321;DHT22;8269;50.990;4.494;2022-07-23T14:43:33;27.90;49.20
16321;DHT22;8269;50.990;4.494;2022-07-23T14:45:58;28.00;48.80
16321;DHT22;8269;50.990;4.494;2022-07-23T14:48:24;28.10;49.30
16321;DHT22;8269;50.990;4.494;2022-07-23T14:50:50;28.00;47.90
16321;DHT22;8269;50.990;4.494;2022-07-23T14:53:15;28.00;48.40
16321;DHT22;8269;50.990;4.494;2022-07-23T14:55:42;28.10;48.00
16321;DHT22;8269;50.990;4.494;2022-07-23T14:58:08;28.00;47.80
16321;DHT22;8269;50.990;4.494;2022-07-23T15:00:34;27.80;48.30
16321;DHT22;8269;50.990;4.494;2022-07-23T15:03:00;27.70;48.40
16321;DHT22;8269;50.990;4.494;2022-07-23T15:05:25;27.60;49.20
16321;DHT22;8269;50.990;4.494;2022-07-23T15:07:51;27.70;49.90
16321;DHT22;8269;50.990;4.494;2022-07-23T15:10:17;27.80;49.20
16321;DHT22;8269;50.990;4.494;2022-07-23T15:12:43;27.80;49.40
16321;DHT22;8269;50.990;4.494;2022-07-23T15:15:09;27.70;48.60
16321;DHT22;8269;50.990;4.494;2022-07-23T15:17:34;27.80;49.10
16321;DHT22;8269;50.990;4.494;2022-07-23T15:20:00;27.90;49.20
16321;DHT22;8269;50.990;4.494;2022-07-23T15:22:26;28.00;47.60
16321;DHT22;8269;50.990;4.494;2022-07-23T15:24:51;27.80;48.30
16321;DHT22;8269;50.990;4.494;2022-07-23T15:27:17;27.70;48.40
16321;DHT22;8269;50.990;4.494;2022-07-23T15:29:44;27.80;49.30
16321;DHT22;8269;50.990;4.494;2022-07-23T15:32:10;27.80;49.40
16321;DHT22;8269;50.990;4.494;2022-07-23T15:34:37;27.70;48.90
16321;DHT22;8269;50.990;4.494;2022-07-23T15:37:02;27.60;49.90
16321;DHT22;8269;50.990;4.494;2022-07-23T15:39:30;27.50;49.90
16321;DHT22;8269;50.990;4.494;2022-07-23T15:41:58;27.50;49.90
16321;DHT22;8269;50.990;4.494;2022-07-23T15:44:24;27.60;49.10
16321;DHT22;8269;50.990;4.494;2022-07-23T15:46:49;27.50;49.30
16321;DHT22;8269;50.990;4.494;2022-07-23T15:49:15;27.40;49.60
16321;DHT22;8269;50.990;4.494;2022-07-23T15:51:41;27.40;49.40
16321;DHT22;8269;50.990;4.494;2022-07-23T15:54:07;27.40;49.70
16321;DHT22;8269;50.990;4.494;2022-07-23T15:56:32;27.30;49.40
16321;DHT22;8269;50.990;4.494;2022-07-23T15:58:58;27.30;49.40
16321;DHT22;8269;50.990;4.494;2022-07-23T16:01:24;27.30;49.30
16321;DHT22;8269;50.990;4.494;2022-07-23T16:03:49;27.20;49.80
16321;DHT22;8269;50.990;4.494;2022-07-23T16:06:15;27.30;50.00
16321;DHT22;8269;50.990;4.494;2022-07-23T16:08:41;27.30;50.80
16321;DHT22;8269;50.990;4.494;2022-07-23T16:11:07;27.40;49.80
16321;DHT22;8269;50.990;4.494;2022-07-23T16:13:32;27.40;48.80
16321;DHT22;8269;50.990;4.494;2022-07-23T16:15:58;27.40;48.90
16321;DHT22;8269;50.990;4.494;2022-07-23T16:18:24;27.50;49.50
16321;DHT22;8269;50.990;4.494;2022-07-23T16:20:51;27.50;49.60
16321;DHT22;8269;50.990;4.494;2022-07-23T16:23:17;27.60;49.60
16321;DHT22;8269;50.990;4.494;2022-07-23T16:25:43;27.60;49.60
16321;DHT22;8269;50.990;4.494;2022-07-23T16:28:09;27.60;49.90
16321;DHT22;8269;50.990;4.494;2022-07-23T16:30:35;27.60;50.10
16321;DHT22;8269;50.990;4.494;2022-07-23T16:33:01;27.70;49.40
16321;DHT22;8269;50.990;4.494;2022-07-23T16:35:27;27.70;49.10
16321;DHT22;8269;50.990;4.494;2022-07-23T16:37:53;27.60;48.80
16321;DHT22;8269;50.990;4.494;2022-07-23T16:40:19;27.40;49.30
16321;DHT22;8269;50.990;4.494;2022-07-23T16:42:46;27.20;49.40